createdAt,value
2022-10-06T00:01:18.563Z,7.70
2022-10-06T00:03:48.462Z,7.97
2022-10-06T00:06:18.947Z,6.07
2022-10-06T00:08:48.399Z,5.35
2022-10-06T00:11:18.048Z,6.65
2022-10-06T00:13:46.635Z,6.63
2022-10-06T00:16:17.846Z,7.15
2022-10-06T00:18:46.756Z,6.28
2022-10-06T00:23:44.811Z,8.10
2022-10-06T00:26:17.239Z,4.28
2022-10-06T00:28:48.420Z,10.75
2022-10-06T00:31:19.661Z,7.18
2022-10-06T00:33:50.154Z,7.13
2022-10-06T00:36:21.320Z,5.30
2022-10-06T00:38:51.461Z,4.70
2022-10-06T00:41:21.671Z,5.53
2022-10-06T00:43:53.759Z,4.60
2022-10-06T00:46:29.843Z,7.47
2022-10-06T00:49:04.657Z,6.43
2022-10-06T00:51:35.485Z,7.63
2022-10-06T00:54:04.874Z,4.15
2022-10-06T00:56:33.561Z,5.95
2022-10-06T00:59:02.049Z,7.82
2022-10-06T01:01:33.232Z,4.90
2022-10-06T01:04:07.587Z,4.18
2022-10-06T01:06:47.023Z,5.32
2022-10-06T01:09:18.227Z,5.78
2022-10-06T01:11:50.099Z,7.40
2022-10-06T01:14:19.870Z,6.15
2022-10-06T01:16:55.244Z,3.17
2022-10-06T01:19:38.491Z,7.55
2022-10-06T01:22:10.493Z,8.85
2022-10-06T01:24:41.344Z,6.57
2022-10-06T01:27:11.553Z,7.22
2022-10-06T01:29:40.401Z,5.85
2022-10-06T01:34:38.289Z,6.47
2022-10-06T01:39:35.449Z,8.98
2022-10-06T01:42:05.523Z,5.90
2022-10-06T01:44:34.495Z,7.28
2022-10-06T01:47:05.288Z,8.35
2022-10-06T01:49:34.056Z,6.90
2022-10-06T01:52:05.504Z,10.13
2022-10-06T01:54:34.093Z,9.18
2022-10-06T01:57:06.120Z,6.82
2022-10-06T01:59:34.641Z,6.93
2022-10-06T02:02:03.391Z,9.43
2022-10-06T02:04:33.243Z,6.07
2022-10-06T02:07:01.723Z,6.55
2022-10-06T02:09:30.252Z,5.97
2022-10-06T02:11:59.408Z,6.03
2022-10-06T02:14:32.777Z,6.18
2022-10-06T02:17:01.540Z,6.47
2022-10-06T02:19:29.967Z,9.20
2022-10-06T02:22:00.185Z,15.73
2022-10-06T02:24:28.585Z,5.10
2022-10-06T02:26:57.022Z,5.10
2022-10-06T02:31:57.021Z,5.68
2022-10-06T02:34:26.028Z,8.30
2022-10-06T02:36:55.326Z,7.15
2022-10-06T02:41:52.028Z,4.90
2022-10-06T02:44:21.602Z,5.47
2022-10-06T02:49:20.867Z,6.68
2022-10-06T02:51:50.079Z,6.03
2022-10-06T02:54:18.550Z,6.50
2022-10-06T02:56:47.091Z,4.85
2022-10-06T02:59:15.567Z,5.65
2022-10-06T03:01:44.823Z,6.18
2022-10-06T03:04:17.628Z,6.85
2022-10-06T03:09:27.950Z,3.90
2022-10-06T03:11:58.512Z,4.82
2022-10-06T03:14:40.108Z,5.70
2022-10-06T03:17:10.118Z,5.75
2022-10-06T03:19:45.680Z,4.43
2022-10-06T03:22:15.669Z,6.97
2022-10-06T03:24:50.782Z,5.88
2022-10-06T03:27:19.294Z,5.57
2022-10-06T03:29:48.552Z,6.28
2022-10-06T03:34:46.964Z,6.43
2022-10-06T03:37:19.321Z,5.00
2022-10-06T03:39:47.959Z,4.65
2022-10-06T03:42:16.952Z,4.75
2022-10-06T03:44:47.600Z,6.88
2022-10-06T03:47:17.452Z,6.25
2022-10-06T03:49:47.449Z,5.18
2022-10-06T03:52:23.586Z,6.78
2022-10-06T03:54:54.795Z,5.75
2022-10-06T03:57:24.024Z,7.63
2022-10-06T03:59:52.746Z,6.40
2022-10-06T04:02:25.957Z,7.07
2022-10-06T04:04:55.981Z,6.90
2022-10-06T04:07:27.355Z,5.00
2022-10-06T04:09:55.885Z,5.68
2022-10-06T04:12:24.349Z,7.85
2022-10-06T04:14:56.577Z,8.90
2022-10-06T04:17:28.948Z,6.82
2022-10-06T04:19:57.480Z,5.75
2022-10-06T04:22:27.404Z,7.32
2022-10-06T04:24:56.155Z,9.75
2022-10-06T04:27:30.774Z,7.07
2022-10-06T04:30:14.867Z,14.95
2022-10-06T04:32:45.852Z,9.23
2022-10-06T04:35:14.567Z,8.95
2022-10-06T04:37:44.565Z,7.18
2022-10-06T04:40:14.237Z,9.00
2022-10-06T04:42:46.044Z,6.78
2022-10-06T04:45:17.187Z,7.43
2022-10-06T04:47:45.873Z,6.15
2022-10-06T04:50:14.658Z,4.88
2022-10-06T04:53:03.269Z,6.63
2022-10-06T04:55:32.028Z,5.88
2022-10-06T04:58:00.746Z,8.60
2022-10-06T05:00:29.382Z,14.82
2022-10-06T05:02:58.875Z,11.50
2022-10-06T05:05:27.359Z,10.80
2022-10-06T05:07:57.493Z,8.65
2022-10-06T05:10:28.703Z,5.72
2022-10-06T05:12:58.103Z,5.13
2022-10-06T05:15:28.263Z,4.00
2022-10-06T05:17:56.922Z,5.32
2022-10-06T05:20:25.412Z,6.88
2022-10-06T05:22:54.903Z,5.22
2022-10-06T05:25:24.339Z,5.40
2022-10-06T05:30:22.584Z,5.88
2022-10-06T05:32:52.230Z,8.63
2022-10-06T05:35:21.455Z,7.65
2022-10-06T05:40:18.598Z,8.68
2022-10-06T05:42:47.019Z,9.35
2022-10-06T05:45:17.095Z,8.25
2022-10-06T05:47:45.621Z,9.82
2022-10-06T05:50:14.013Z,9.43
2022-10-06T05:52:42.686Z,9.70
2022-10-06T05:55:11.653Z,7.57
2022-10-06T05:57:40.831Z,7.30
2022-10-06T06:00:10.241Z,8.88
2022-10-06T06:02:43.040Z,11.40
2022-10-06T06:05:13.442Z,10.70
2022-10-06T06:10:10.702Z,9.95
2022-10-06T06:12:39.750Z,8.25
2022-10-06T06:15:45.846Z,8.90
2022-10-06T06:18:15.820Z,8.07
2022-10-06T06:20:44.323Z,9.85
2022-10-06T06:23:12.879Z,7.45
2022-10-06T06:25:41.458Z,9.50
2022-10-06T06:28:10.190Z,7.85
2022-10-06T06:30:38.685Z,9.25
2022-10-06T06:33:07.242Z,12.98
2022-10-06T06:35:38.180Z,10.10
2022-10-06T06:38:11.916Z,14.45
2022-10-06T06:40:42.081Z,10.80
2022-10-06T06:43:13.538Z,12.77
2022-10-06T06:46:04.398Z,12.52
2022-10-06T06:48:50.068Z,11.93
2022-10-06T06:51:23.045Z,10.85
2022-10-06T06:53:53.250Z,10.40
2022-10-06T06:56:22.787Z,13.27
2022-10-06T06:58:51.674Z,9.18
2022-10-06T07:01:23.651Z,11.05
2022-10-06T07:03:58.823Z,10.20
2022-10-06T07:06:33.048Z,12.65
2022-10-06T07:09:05.270Z,10.45
2022-10-06T07:11:36.107Z,14.00
2022-10-06T07:14:11.904Z,10.73
2022-10-06T07:17:01.870Z,12.13
2022-10-06T07:19:48.068Z,11.00
2022-10-06T07:22:38.059Z,15.77
2022-10-06T07:25:15.251Z,12.50
2022-10-06T07:27:51.132Z,10.63
2022-10-06T07:30:25.946Z,11.70
2022-10-06T07:33:05.140Z,11.30
2022-10-06T07:35:34.463Z,11.30
2022-10-06T07:38:08.037Z,9.77
2022-10-06T07:41:17.853Z,11.27
2022-10-06T07:43:46.974Z,11.15
2022-10-06T07:46:16.600Z,10.52
2022-10-06T07:49:06.861Z,9.95
2022-10-06T07:51:35.400Z,12.27
2022-10-06T07:54:07.069Z,9.55
2022-10-06T07:56:43.282Z,16.10
2022-10-06T07:59:11.884Z,17.88
2022-10-06T08:01:40.949Z,16.20
2022-10-06T08:04:09.326Z,17.08
2022-10-06T08:06:38.264Z,13.77
2022-10-06T08:11:36.653Z,12.27
2022-10-06T08:14:04.996Z,12.73
2022-10-06T08:16:33.454Z,11.30
2022-10-06T08:19:01.876Z,13.30
2022-10-06T08:21:34.505Z,12.50
2022-10-06T08:24:03.682Z,13.40
2022-10-06T08:26:34.581Z,10.25
2022-10-06T08:29:03.617Z,10.65
2022-10-06T08:31:33.098Z,10.95
2022-10-06T08:34:01.675Z,9.90
2022-10-06T08:36:32.234Z,11.50
2022-10-06T08:39:01.513Z,11.45
2022-10-06T08:41:40.942Z,10.77
2022-10-06T08:44:20.822Z,18.75
2022-10-06T08:46:55.448Z,8.95
2022-10-06T08:49:27.055Z,8.20
2022-10-06T08:52:07.160Z,9.70
2022-10-06T08:54:42.863Z,9.27
2022-10-06T08:57:21.020Z,9.15
2022-10-06T08:59:53.851Z,12.32
2022-10-06T09:02:29.717Z,12.82
2022-10-06T09:04:59.824Z,11.00
2022-10-06T09:07:39.837Z,7.90
2022-10-06T09:10:32.742Z,8.85
2022-10-06T09:13:08.030Z,9.73
2022-10-06T09:15:42.324Z,7.47
2022-10-06T09:18:16.832Z,9.10
2022-10-06T09:20:51.697Z,9.18
2022-10-06T09:23:41.167Z,12.35
2022-10-06T09:26:13.077Z,15.32
2022-10-06T09:28:46.254Z,17.92
2022-10-06T09:31:23.386Z,16.67
2022-10-06T09:33:54.951Z,14.38
2022-10-06T09:36:24.280Z,13.35
2022-10-06T09:38:55.401Z,10.05
2022-10-06T09:41:31.732Z,14.45
2022-10-06T09:44:06.268Z,8.07
2022-10-06T09:46:39.783Z,11.50
2022-10-06T09:49:17.521Z,11.00
2022-10-06T09:52:12.060Z,7.82
2022-10-06T09:54:42.082Z,10.38
2022-10-06T09:57:17.300Z,8.93
2022-10-06T09:59:49.110Z,10.30
2022-10-06T10:02:30.199Z,9.07
2022-10-06T10:04:59.604Z,13.20
2022-10-06T10:07:30.041Z,8.02
2022-10-06T10:10:20.333Z,9.45
2022-10-06T10:12:52.990Z,8.77
2022-10-06T10:15:35.337Z,8.68
2022-10-06T10:18:06.209Z,9.13
2022-10-06T10:20:38.661Z,8.13
2022-10-06T10:23:28.644Z,9.07
2022-10-06T10:26:18.813Z,6.57
2022-10-06T10:29:16.505Z,6.90
2022-10-06T10:31:58.300Z,9.07
2022-10-06T10:34:59.112Z,10.38
2022-10-06T10:37:38.043Z,8.68
2022-10-06T10:40:17.005Z,7.35
2022-10-06T10:45:23.682Z,11.13
2022-10-06T10:47:55.512Z,11.10
2022-10-06T10:50:28.286Z,11.02
2022-10-06T10:53:03.293Z,12.52
2022-10-06T10:55:37.251Z,9.75
2022-10-06T10:58:13.048Z,10.98
2022-10-06T11:00:46.019Z,12.30
2022-10-06T11:03:16.016Z,15.50
2022-10-06T11:06:14.675Z,14.38
2022-10-06T11:11:23.408Z,14.13
2022-10-06T11:13:55.074Z,16.20
2022-10-06T11:16:37.304Z,13.88
2022-10-06T11:19:20.668Z,10.30
2022-10-06T11:21:58.646Z,13.63
2022-10-06T11:24:34.195Z,17.03
2022-10-06T11:27:23.037Z,12.55
2022-10-06T11:30:03.252Z,16.90
2022-10-06T11:32:46.541Z,16.17
2022-10-06T11:35:23.100Z,15.52
2022-10-06T11:37:57.076Z,14.45
2022-10-06T11:40:49.634Z,17.55
2022-10-06T11:43:30.338Z,15.23
2022-10-06T11:46:08.028Z,12.40
2022-10-06T11:48:36.779Z,14.32
2022-10-06T11:51:31.928Z,13.77
2022-10-06T11:54:00.873Z,18.40
2022-10-06T11:56:38.991Z,13.63
2022-10-06T11:59:31.466Z,16.10
2022-10-06T12:02:02.205Z,12.77
2022-10-06T12:04:31.107Z,14.00
2022-10-06T12:07:05.707Z,18.95
2022-10-06T12:09:52.073Z,13.10
2022-10-06T12:13:06.592Z,12.35
2022-10-06T12:19:19.615Z,12.02
2022-10-06T12:21:55.035Z,12.38
2022-10-06T12:24:37.045Z,12.63
2022-10-06T12:27:35.313Z,15.80
2022-10-06T12:30:07.649Z,11.60
2022-10-06T12:32:47.801Z,11.90
2022-10-06T12:35:30.386Z,12.25
2022-10-06T12:38:04.901Z,13.25
2022-10-06T12:40:55.529Z,12.13
2022-10-06T12:43:57.173Z,14.85
2022-10-06T12:46:38.206Z,11.85
2022-10-06T12:49:35.459Z,11.93
2022-10-06T12:52:18.670Z,12.85
2022-10-06T12:55:00.011Z,10.30
2022-10-06T12:57:30.951Z,14.52
2022-10-06T12:59:59.494Z,13.30
2022-10-06T13:02:29.058Z,14.13
2022-10-06T13:05:01.293Z,11.77
2022-10-06T13:07:33.807Z,11.68
2022-10-06T13:10:19.969Z,12.45
2022-10-06T13:12:52.342Z,14.27
2022-10-06T13:15:25.511Z,11.05
2022-10-06T13:17:57.194Z,15.73
2022-10-06T13:20:37.578Z,11.88
2022-10-06T13:23:17.632Z,16.50
2022-10-06T13:25:49.535Z,11.70
2022-10-06T13:28:25.286Z,14.60
2022-10-06T13:30:55.375Z,15.40
2022-10-06T13:33:25.516Z,12.63
2022-10-06T13:35:56.301Z,13.52
2022-10-06T13:38:24.817Z,16.65
2022-10-06T13:41:22.792Z,15.52
2022-10-06T13:43:55.551Z,17.85
2022-10-06T13:46:27.290Z,17.65
2022-10-06T13:48:59.758Z,16.88
2022-10-06T13:51:31.016Z,15.00
2022-10-06T13:54:01.692Z,16.33
2022-10-06T13:56:36.508Z,21.42
2022-10-06T13:59:31.664Z,14.55
2022-10-06T14:02:02.584Z,16.80
2022-10-06T14:04:34.650Z,15.60
2022-10-06T14:07:05.987Z,17.08
2022-10-06T14:09:35.342Z,20.35
2022-10-06T14:12:06.929Z,14.75
2022-10-06T14:14:36.881Z,14.85
2022-10-06T14:17:05.756Z,11.98
2022-10-06T14:19:36.962Z,12.77
2022-10-06T14:22:07.801Z,12.15
2022-10-06T14:24:37.610Z,14.85
2022-10-06T14:27:07.952Z,10.85
2022-10-06T14:29:38.143Z,13.25
2022-10-06T14:32:11.346Z,11.93
2022-10-06T14:34:40.734Z,11.27
2022-10-06T14:37:15.406Z,15.50
2022-10-06T14:39:45.211Z,11.75
2022-10-06T14:42:15.465Z,14.32
2022-10-06T14:44:45.577Z,13.23
2022-10-06T14:47:14.123Z,18.38
2022-10-06T14:49:45.072Z,14.57
2022-10-06T14:52:14.648Z,13.48
2022-10-06T14:54:43.878Z,12.52
2022-10-06T14:57:13.051Z,15.40
2022-10-06T14:59:41.512Z,15.98
2022-10-06T15:02:12.472Z,16.48
2022-10-06T15:04:40.964Z,17.20
2022-10-06T15:07:32.210Z,15.57
2022-10-06T15:10:00.823Z,17.00
2022-10-06T15:12:33.771Z,14.80
2022-10-06T15:15:02.587Z,16.02
2022-10-06T15:17:33.812Z,15.80
2022-10-06T15:20:02.264Z,15.88
2022-10-06T15:22:32.223Z,18.13
2022-10-06T15:25:03.407Z,15.10
2022-10-06T15:27:49.309Z,14.40
2022-10-06T15:30:18.963Z,14.18
2022-10-06T15:32:49.932Z,17.08
2022-10-06T15:35:18.543Z,13.68
2022-10-06T15:37:47.184Z,17.10
2022-10-06T15:40:15.796Z,15.57
2022-10-06T15:42:44.254Z,13.50
2022-10-06T15:45:12.781Z,12.82
2022-10-06T15:47:42.366Z,16.73
2022-10-06T15:50:17.850Z,14.77
2022-10-06T15:52:47.473Z,16.13
2022-10-06T15:55:16.066Z,16.20
2022-10-06T15:57:45.433Z,15.77
2022-10-06T16:00:15.014Z,19.30
2022-10-06T16:02:46.309Z,16.85
2022-10-06T16:05:38.730Z,14.05
2022-10-06T16:08:07.364Z,14.93
2022-10-06T16:10:38.787Z,14.65
2022-10-06T16:13:09.863Z,16.23
2022-10-06T16:15:38.449Z,12.50
2022-10-06T16:18:10.680Z,16.92
2022-10-06T16:20:42.681Z,15.52
2022-10-06T16:23:15.137Z,18.48
2022-10-06T16:25:43.606Z,17.48
2022-10-06T16:28:12.014Z,15.45
2022-10-06T16:30:45.636Z,17.85
2022-10-06T16:33:31.939Z,16.33
2022-10-06T16:36:05.138Z,15.25
2022-10-06T16:38:33.736Z,14.07
2022-10-06T16:41:05.873Z,15.85
2022-10-06T16:43:38.347Z,16.55
2022-10-06T16:46:10.790Z,16.13
2022-10-06T16:48:41.196Z,17.73
2022-10-06T16:51:13.335Z,15.75
2022-10-06T16:53:43.252Z,32.40
2022-10-06T16:56:14.861Z,19.27
2022-10-06T16:58:44.828Z,21.25
2022-10-06T17:01:17.098Z,18.92
2022-10-06T17:03:48.829Z,21.58
2022-10-06T17:06:21.583Z,17.70
2022-10-06T17:08:52.485Z,15.85
2022-10-06T17:11:25.093Z,16.58
2022-10-06T17:13:57.191Z,15.63
2022-10-06T17:16:29.357Z,21.30
2022-10-06T17:18:59.505Z,20.02
2022-10-06T17:21:45.604Z,16.70
2022-10-06T17:24:18.785Z,17.05
2022-10-06T17:26:48.763Z,19.27
2022-10-06T17:29:19.124Z,18.77
2022-10-06T17:31:48.835Z,17.30
2022-10-06T17:34:26.511Z,16.83
2022-10-06T17:36:57.903Z,21.63
2022-10-06T17:39:26.380Z,16.42
2022-10-06T17:41:59.793Z,16.98
2022-10-06T17:44:31.356Z,18.92
2022-10-06T17:47:01.800Z,19.65
2022-10-06T17:49:34.742Z,21.65
2022-10-06T17:52:05.991Z,18.48
2022-10-06T17:54:35.012Z,21.23
2022-10-06T17:57:03.580Z,22.77
2022-10-06T17:59:33.903Z,16.95
2022-10-06T18:02:04.094Z,18.48
2022-10-06T18:04:33.899Z,21.13
2022-10-06T18:07:03.394Z,19.83
2022-10-06T18:09:33.337Z,19.35
2022-10-06T18:12:02.725Z,17.20
2022-10-06T18:14:33.786Z,19.70
2022-10-06T18:17:04.192Z,21.85
2022-10-06T18:19:35.080Z,23.40
2022-10-06T18:22:10.339Z,21.75
2022-10-06T18:24:41.440Z,16.00
2022-10-06T18:27:10.463Z,21.67
2022-10-06T18:29:40.427Z,20.52
2022-10-06T18:33:40.225Z,17.42
2022-10-06T18:37:46.637Z,24.90
2022-10-06T18:40:19.381Z,20.77
2022-10-06T18:42:48.027Z,20.95
2022-10-06T18:45:39.115Z,20.25
2022-10-06T18:48:26.941Z,27.60
2022-10-06T18:51:02.179Z,20.00
2022-10-06T18:53:33.571Z,20.83
2022-10-06T18:56:03.725Z,21.13
2022-10-06T18:58:32.371Z,22.27
2022-10-06T19:01:05.630Z,18.42
2022-10-06T19:03:34.452Z,22.92
2022-10-06T19:06:02.984Z,27.40
2022-10-06T19:08:31.482Z,22.33
2022-10-06T19:11:22.629Z,22.02
2022-10-06T19:13:53.408Z,21.65
2022-10-06T19:16:22.102Z,24.77
2022-10-06T19:18:50.621Z,24.42
2022-10-06T19:21:19.116Z,26.35
2022-10-06T19:23:47.630Z,23.20
2022-10-06T19:26:18.861Z,23.88
2022-10-06T19:28:47.397Z,26.17
2022-10-06T19:31:18.786Z,33.25
2022-10-06T19:33:48.527Z,27.30
2022-10-06T19:36:18.206Z,26.67
2022-10-06T19:38:46.990Z,32.55
2022-10-06T19:41:32.943Z,26.35
2022-10-06T19:44:05.042Z,24.00
2022-10-06T19:46:33.564Z,30.33
2022-10-06T19:49:05.845Z,29.23
2022-10-06T19:51:35.494Z,27.40
2022-10-06T19:54:05.100Z,26.63
2022-10-06T19:56:33.641Z,24.70
2022-10-06T19:59:02.526Z,32.63
2022-10-06T20:04:04.651Z,28.73
2022-10-06T20:06:35.273Z,26.88
2022-10-06T20:09:08.925Z,26.33
2022-10-06T20:11:41.493Z,23.23
2022-10-06T20:14:15.868Z,24.80
2022-10-06T20:16:51.309Z,22.10
2022-10-06T20:19:21.237Z,20.70
2022-10-06T20:21:50.449Z,22.38
2022-10-06T20:24:22.693Z,24.58
2022-10-06T20:26:52.173Z,25.15
2022-10-06T20:29:23.904Z,21.42
2022-10-06T20:31:58.941Z,23.10
2022-10-06T20:34:32.135Z,20.95
2022-10-06T20:37:02.386Z,19.70
2022-10-06T20:39:50.229Z,20.70
2022-10-06T20:42:19.813Z,19.92
2022-10-06T20:44:48.561Z,20.55
2022-10-06T20:47:18.385Z,19.45
2022-10-06T20:49:55.357Z,16.38
2022-10-06T20:52:24.471Z,18.90
2022-10-06T20:57:21.309Z,18.63
2022-10-06T20:59:52.316Z,17.95
2022-10-06T21:02:22.706Z,17.58
2022-10-06T21:04:51.210Z,20.42
2022-10-06T21:07:25.075Z,16.45
2022-10-06T21:09:53.752Z,19.02
2022-10-06T21:12:27.416Z,17.15
2022-10-06T21:14:58.611Z,19.77
2022-10-06T21:17:31.006Z,19.60
2022-10-06T21:20:05.768Z,25.90
2022-10-06T21:22:34.310Z,17.42
2022-10-06T21:25:03.769Z,16.15
2022-10-06T21:27:32.203Z,19.02
2022-10-06T21:30:00.623Z,17.38
2022-10-06T21:32:32.740Z,18.90
2022-10-06T21:35:01.109Z,17.38
2022-10-06T21:37:37.446Z,23.05
2022-10-06T21:40:09.178Z,15.65
2022-10-06T21:42:39.503Z,17.58
2022-10-06T21:45:08.527Z,17.35
2022-10-06T21:47:40.925Z,18.10
2022-10-06T21:50:10.570Z,18.80
2022-10-06T21:52:41.458Z,16.40
2022-10-06T21:55:11.781Z,20.25
2022-10-06T21:57:42.538Z,19.65
2022-10-06T22:00:15.517Z,15.80
2022-10-06T22:02:56.213Z,16.63
2022-10-06T22:05:24.898Z,17.92
2022-10-06T22:07:54.393Z,16.40
2022-10-06T22:10:24.600Z,15.52
2022-10-06T22:12:56.797Z,15.65
2022-10-06T22:15:25.273Z,15.68
2022-10-06T22:17:59.669Z,13.98
2022-10-06T22:20:32.161Z,15.73
2022-10-06T22:23:04.776Z,15.25
2022-10-06T22:25:36.016Z,15.73
2022-10-06T22:28:13.460Z,15.57
2022-10-06T22:30:42.191Z,16.92
2022-10-06T22:33:12.666Z,16.33
2022-10-06T22:35:52.275Z,13.55
2022-10-06T22:38:20.928Z,14.65
2022-10-06T22:40:50.495Z,16.92
2022-10-06T22:43:18.960Z,14.55
2022-10-06T22:45:47.376Z,13.43
2022-10-06T22:48:22.168Z,12.18
2022-10-06T22:50:54.023Z,13.73
2022-10-06T22:53:28.314Z,12.68
2022-10-06T22:55:57.040Z,13.32
2022-10-06T23:00:54.361Z,12.82
2022-10-06T23:03:24.815Z,14.50
2022-10-06T23:05:57.480Z,13.57
2022-10-06T23:08:34.180Z,14.35
2022-10-06T23:11:07.975Z,14.48
2022-10-06T23:13:36.901Z,14.15
2022-10-06T23:16:07.930Z,13.00
2022-10-06T23:18:40.277Z,17.13
2022-10-06T23:21:10.661Z,11.18
2022-10-06T23:23:39.727Z,15.50
2022-10-06T23:26:10.035Z,12.95
2022-10-06T23:28:39.628Z,14.30
2022-10-06T23:31:10.577Z,14.77
2022-10-06T23:33:41.986Z,13.05
2022-10-06T23:36:12.885Z,11.88
2022-10-06T23:38:42.303Z,13.40
2022-10-06T23:41:11.116Z,14.70
2022-10-06T23:46:10.239Z,12.02
2022-10-06T23:48:44.539Z,18.67
2022-10-06T23:51:15.397Z,17.27
2022-10-06T23:53:44.900Z,12.85
2022-10-06T23:56:14.250Z,12.13
2022-10-06T23:58:43.007Z,13.52
